Terminal Aerodrome Forecast
Issued by NWS

Home | Current Version | Previous Version | Text Only | Print | Product List | Glossary On
Versions: 1 2 3 4 5 6 7 8 9 10 11 12 13
000
FTUS44 KLIX 302300 RRA
TAFMSY
TAF
KMSY 302343Z 3100/3124 17010KT 3SM SHRA BKN035 BKN050
      TEMPO 3100/3102 VRB15G25KT 2SM TSRA BKN020CB
     FM310230 16008KT P6SM VCSH BKN050
     FM310500 14005KT P6SM BKN100
     FM311700 14009KT P6SM BKN250=

USA.gov is the U.S. government's official web portal to all federal, state and local government web resources and services.